createdAt,value
2022-08-03T00:02:25.567Z,98227.39
2022-08-03T00:04:57.048Z,98229.56
2022-08-03T00:07:28.498Z,98232.08
2022-08-03T00:09:58.566Z,98233.85
2022-08-03T00:12:30.075Z,98232.26
2022-08-03T00:15:01.649Z,98233.91
2022-08-03T00:17:53.080Z,98233.23
2022-08-03T00:20:23.382Z,98233.15
2022-08-03T00:22:55.077Z,98231.17
2022-08-03T00:25:26.884Z,98224.77
2022-08-03T00:27:58.493Z,98222.42
2022-08-03T00:30:30.880Z,98224.27
2022-08-03T00:33:02.813Z,98223.25
2022-08-03T00:35:50.021Z,98224.73
2022-08-03T00:38:22.510Z,98225.66
2022-08-03T00:40:52.577Z,98225.64
2022-08-03T00:43:27.734Z,98224.77
2022-08-03T00:45:59.156Z,98221.95
2022-08-03T00:48:32.969Z,98221.77
2022-08-03T00:51:06.868Z,98227.98
2022-08-03T00:53:39.295Z,98228.82
2022-08-03T00:56:13.972Z,98225.91
2022-08-03T00:58:47.008Z,98226.39
2022-08-03T01:01:18.539Z,98225.99
2022-08-03T01:03:50.134Z,98229.10
2022-08-03T01:06:27.198Z,98232.45
2022-08-03T01:09:09.987Z,98235.54
2022-08-03T01:11:59.882Z,98235.80
2022-08-03T01:14:39.692Z,98235.63
2022-08-03T01:17:16.302Z,98236.62
2022-08-03T01:19:57.193Z,98234.64
2022-08-03T01:22:58.811Z,98238.43
2022-08-03T01:25:41.747Z,98240.75
2022-08-03T01:28:29.958Z,98237.09
2022-08-03T01:31:05.654Z,98238.55
2022-08-03T01:33:41.653Z,98241.45
2022-08-03T01:36:18.840Z,98240.59
2022-08-03T01:38:53.770Z,98236.86
2022-08-03T01:41:30.997Z,98239.27
2022-08-03T01:44:29.089Z,98238.14
2022-08-03T01:46:59.606Z,98241.96
2022-08-03T01:49:34.800Z,98241.17
2022-08-03T01:52:07.440Z,98242.39
2022-08-03T01:54:42.979Z,98241.49
2022-08-03T01:57:17.602Z,98237.52
2022-08-03T01:59:53.236Z,98233.45
2022-08-03T02:02:33.044Z,98229.14
2022-08-03T02:05:10.841Z,98227.27
2022-08-03T02:07:44.905Z,98225.08
2022-08-03T02:10:34.303Z,98226.02
2022-08-03T02:13:09.162Z,98225.02
2022-08-03T02:15:44.957Z,98225.64
2022-08-03T02:18:17.944Z,98228.05
2022-08-03T02:20:51.117Z,98227.61
2022-08-03T02:23:23.761Z,98228.52
2022-08-03T02:26:00.115Z,98224.83
2022-08-03T02:28:36.829Z,98228.05
2022-08-03T02:31:16.380Z,98229.77
2022-08-03T02:33:52.433Z,98225.45
2022-08-03T02:36:27.806Z,98222.30
2022-08-03T02:39:05.368Z,98219.45
2022-08-03T02:41:42.906Z,98221.39
2022-08-03T02:44:17.800Z,98219.23
2022-08-03T02:46:51.604Z,98218.54
2022-08-03T02:49:40.652Z,98216.64
2022-08-03T02:52:17.044Z,98215.87
2022-08-03T02:54:50.467Z,98214.55
2022-08-03T02:57:23.671Z,98214.49
2022-08-03T02:59:56.541Z,98217.14
2022-08-03T03:02:29.054Z,98219.05
2022-08-03T03:05:52.794Z,98230.10
2022-08-03T03:07:54.577Z,98228.36
2022-08-03T03:10:27.647Z,98230.73
2022-08-03T03:13:00.562Z,98231.35
2022-08-03T03:15:32.701Z,98226.53
2022-08-03T03:18:05.321Z,98221.09
2022-08-03T03:20:37.816Z,98222.94
2022-08-03T03:23:10.811Z,98221.92
2022-08-03T03:25:42.835Z,98221.27
2022-08-03T03:28:15.539Z,98220.02
2022-08-03T03:30:53.209Z,98214.95
2022-08-03T03:33:28.243Z,98219.23
2022-08-03T03:36:00.495Z,98223.52
2022-08-03T03:38:33.074Z,98231.30
2022-08-03T03:41:05.490Z,98234.83
2022-08-03T03:43:37.029Z,98233.80
2022-08-03T03:46:07.169Z,98237.29
2022-08-03T03:48:39.957Z,98237.02
2022-08-03T03:51:13.738Z,98234.84
2022-08-03T03:53:57.422Z,98234.62
2022-08-03T03:56:29.579Z,98240.07
2022-08-03T03:59:01.099Z,98244.98
2022-08-03T04:01:33.205Z,98248.16
2022-08-03T04:04:18.821Z,98243.55
2022-08-03T04:07:08.826Z,98245.17
2022-08-03T04:10:07.845Z,98249.95
2022-08-03T04:12:50.163Z,98256.97
2022-08-03T04:15:25.247Z,98254.23
2022-08-03T04:17:59.659Z,98258.52
2022-08-03T04:20:33.703Z,98261.02
2022-08-03T04:23:13.512Z,98264.14
2022-08-03T04:25:50.301Z,98263.59
2022-08-03T04:28:30.920Z,98265.20
2022-08-03T04:31:04.849Z,98264.98
2022-08-03T04:33:39.520Z,98265.11
2022-08-03T04:36:13.577Z,98267.70
2022-08-03T04:38:55.511Z,98263.38
2022-08-03T04:41:29.738Z,98265.90
2022-08-03T04:44:03.186Z,98272.41
2022-08-03T04:46:39.403Z,98273.95
2022-08-03T04:49:19.277Z,98276.75
2022-08-03T04:51:51.797Z,98277.91
2022-08-03T04:54:23.471Z,98274.39
2022-08-03T04:56:55.131Z,98276.90
2022-08-03T04:59:26.662Z,98278.46
2022-08-03T05:01:58.590Z,98278.11
2022-08-03T05:04:30.138Z,98271.77
2022-08-03T05:07:11.756Z,98271.40
2022-08-03T05:09:50.055Z,98272.05
2022-08-03T05:12:22.449Z,98276.23
2022-08-03T05:14:53.880Z,98278.77
2022-08-03T05:17:25.361Z,98272.87
2022-08-03T05:19:57.633Z,98271.52
2022-08-03T05:22:29.158Z,98268.89
2022-08-03T05:25:01.642Z,98271.86
2022-08-03T05:27:33.311Z,98274.49
2022-08-03T05:30:31.078Z,98273.41
2022-08-03T05:32:57.195Z,98277.45
2022-08-03T05:36:02.171Z,98277.69
2022-08-03T05:38:28.044Z,98279.29
2022-08-03T05:41:21.658Z,98283.38
2022-08-03T05:43:52.627Z,98285.91
2022-08-03T05:46:24.755Z,98281.31
2022-08-03T05:48:56.516Z,98280.12
2022-08-03T05:51:28.962Z,98280.99
2022-08-03T05:54:00.456Z,98286.08
2022-08-03T05:56:32.374Z,98282.55
2022-08-03T05:59:22.389Z,98283.55
2022-08-03T06:01:55.512Z,98283.23
2022-08-03T06:04:27.212Z,98282.09
2022-08-03T06:06:58.668Z,98278.71
2022-08-03T06:09:31.910Z,98284.84
2022-08-03T06:12:22.421Z,98290.27
2022-08-03T06:14:53.907Z,98289.75
2022-08-03T06:17:25.724Z,98292.14
2022-08-03T06:19:58.518Z,98290.83
2022-08-03T06:22:30.006Z,98293.29
2022-08-03T06:25:04.203Z,98293.94
2022-08-03T06:27:39.965Z,98287.42
2022-08-03T06:30:18.117Z,98294.87
2022-08-03T06:32:52.652Z,98293.52
2022-08-03T06:35:24.653Z,98295.15
2022-08-03T06:37:57.023Z,98297.92
2022-08-03T06:40:31.290Z,98298.25
2022-08-03T06:43:04.000Z,98304.65
2022-08-03T06:45:36.297Z,98309.23
2022-08-03T06:48:09.883Z,98309.43
2022-08-03T06:50:44.312Z,98307.19
2022-08-03T06:53:21.275Z,98312.67
2022-08-03T06:55:55.017Z,98308.86
2022-08-03T06:58:26.804Z,98310.48
2022-08-03T07:00:58.487Z,98309.73
2022-08-03T07:03:30.582Z,98312.86
2022-08-03T07:06:02.268Z,98308.22
2022-08-03T07:08:35.744Z,98305.70
2022-08-03T07:11:07.987Z,98303.30
2022-08-03T07:13:41.258Z,98302.11
2022-08-03T07:16:12.827Z,98304.77
2022-08-03T07:18:44.288Z,98302.91
2022-08-03T07:21:17.038Z,98299.65
2022-08-03T07:23:48.559Z,98298.79
2022-08-03T07:26:20.086Z,98293.23
2022-08-03T07:28:51.626Z,98294.58
2022-08-03T07:31:23.140Z,98296.11
2022-08-03T07:33:54.624Z,98292.46
2022-08-03T07:36:27.128Z,98292.30
2022-08-03T07:38:59.066Z,98292.96
2022-08-03T07:41:31.817Z,98301.58
2022-08-03T07:44:03.286Z,98300.52
2022-08-03T07:46:34.881Z,98300.48
2022-08-03T07:49:06.551Z,98298.73
2022-08-03T07:51:38.322Z,98300.00
2022-08-03T07:54:10.280Z,98301.92
2022-08-03T07:56:41.939Z,98300.43
2022-08-03T07:59:13.788Z,98297.16
2022-08-03T08:01:45.330Z,98299.50
2022-08-03T08:04:16.834Z,98298.53
2022-08-03T08:06:48.513Z,98300.85
2022-08-03T08:09:20.392Z,98298.55
2022-08-03T08:11:51.970Z,98299.23
2022-08-03T08:14:23.460Z,98299.89
2022-08-03T08:16:55.015Z,98302.31
2022-08-03T08:19:26.627Z,98298.27
2022-08-03T08:22:03.057Z,98302.69
2022-08-03T08:24:34.922Z,98301.67
2022-08-03T08:27:08.807Z,98300.34
2022-08-03T08:29:54.273Z,98304.17
2022-08-03T08:32:28.064Z,98305.26
2022-08-03T08:34:59.744Z,98305.25
2022-08-03T08:37:31.309Z,98301.39
2022-08-03T08:40:03.275Z,98309.08
2022-08-03T08:42:35.196Z,98306.73
2022-08-03T08:45:08.846Z,98306.64
2022-08-03T08:47:50.921Z,98304.38
2022-08-03T08:50:27.902Z,98306.86
2022-08-03T08:53:04.047Z,98308.67
2022-08-03T08:55:58.876Z,98308.44
2022-08-03T08:58:29.704Z,98307.66
2022-08-03T09:01:01.347Z,98304.98
2022-08-03T09:03:35.457Z,98305.04
2022-08-03T09:06:10.591Z,98307.39
2022-08-03T09:08:42.209Z,98307.50
2022-08-03T09:11:13.766Z,98307.27
2022-08-03T09:13:46.512Z,98305.45
2022-08-03T09:16:19.632Z,98305.56
2022-08-03T09:18:53.615Z,98306.37
2022-08-03T09:21:32.060Z,98308.59
2022-08-03T09:24:10.336Z,98304.43
2022-08-03T09:26:53.969Z,98301.38
2022-08-03T09:29:26.201Z,98303.98
2022-08-03T09:32:03.227Z,98297.66
2022-08-03T09:34:35.110Z,98302.08
2022-08-03T09:37:16.315Z,98299.38
2022-08-03T09:39:48.370Z,98300.31
2022-08-03T09:42:23.969Z,98299.91
2022-08-03T09:44:55.998Z,98297.98
2022-08-03T09:47:33.076Z,98296.16
2022-08-03T09:50:06.430Z,98296.50
2022-08-03T09:52:49.597Z,98297.11
2022-08-03T09:56:33.050Z,98293.48
2022-08-03T09:58:15.023Z,98284.89
2022-08-03T10:00:58.761Z,98287.23
2022-08-03T10:03:32.055Z,98288.86
2022-08-03T10:06:17.686Z,98286.71
2022-08-03T10:09:05.513Z,98283.55
2022-08-03T10:11:41.837Z,98286.44
2022-08-03T10:14:19.054Z,98286.50
2022-08-03T10:16:51.152Z,98286.34
2022-08-03T10:19:22.711Z,98286.84
2022-08-03T10:21:58.799Z,98287.20
2022-08-03T10:24:31.773Z,98282.94
2022-08-03T10:27:06.026Z,98280.14
2022-08-03T10:29:41.051Z,98283.07
2022-08-03T10:32:19.639Z,98278.00
2022-08-03T10:34:59.832Z,98276.23
2022-08-03T10:37:31.416Z,98274.38
2022-08-03T10:40:05.889Z,98275.67
2022-08-03T10:42:37.995Z,98274.88
2022-08-03T10:45:19.118Z,98273.17
2022-08-03T10:47:53.078Z,98273.48
2022-08-03T10:50:26.918Z,98268.20
2022-08-03T10:53:01.947Z,98264.09
2022-08-03T10:55:54.910Z,98259.79
2022-08-03T10:58:57.352Z,98258.09
2022-08-03T11:01:59.867Z,98257.71
2022-08-03T11:04:32.787Z,98256.30
2022-08-03T11:07:24.441Z,98258.58
2022-08-03T11:09:57.574Z,98257.48
2022-08-03T11:12:32.197Z,98251.40
2022-08-03T11:15:08.504Z,98250.65
2022-08-03T11:17:45.878Z,98248.50
2022-08-03T11:20:38.622Z,98247.73
2022-08-03T11:23:10.291Z,98245.23
2022-08-03T11:26:10.689Z,98239.70
2022-08-03T11:28:42.938Z,98239.97
2022-08-03T11:31:57.494Z,98238.91
2022-08-03T11:34:29.071Z,98238.25
2022-08-03T11:37:28.712Z,98239.23
2022-08-03T11:40:04.052Z,98242.16
2022-08-03T11:42:47.047Z,98242.73
2022-08-03T11:45:19.890Z,98243.48
2022-08-03T11:47:53.955Z,98240.30
2022-08-03T11:50:45.700Z,98242.18
2022-08-03T11:53:21.812Z,98231.67
2022-08-03T11:55:54.029Z,98231.79
2022-08-03T11:59:18.963Z,98228.52
2022-08-03T12:01:23.315Z,98227.60
2022-08-03T12:03:55.286Z,98225.09
2022-08-03T12:06:26.856Z,98228.73
2022-08-03T12:08:58.513Z,98224.05
2022-08-03T12:11:33.500Z,98221.71
2022-08-03T12:14:48.637Z,98215.55
2022-08-03T12:16:56.715Z,98215.05
2022-08-03T12:19:28.326Z,98214.36
2022-08-03T12:21:59.969Z,98211.03
2022-08-03T12:24:44.201Z,98209.75
2022-08-03T12:27:29.748Z,98207.79
2022-08-03T12:30:02.741Z,98208.41
2022-08-03T12:32:37.923Z,98202.34
2022-08-03T12:35:11.320Z,98202.98
2022-08-03T12:37:48.941Z,98199.14
2022-08-03T12:40:29.390Z,98201.98
2022-08-03T12:43:01.157Z,98201.05
2022-08-03T12:45:34.607Z,98198.64
2022-08-03T12:48:12.809Z,98196.34
2022-08-03T12:50:45.164Z,98196.59
2022-08-03T12:53:31.355Z,98195.10
2022-08-03T12:56:06.552Z,98194.60
2022-08-03T12:58:38.629Z,98190.46
2022-08-03T13:01:10.860Z,98190.23
2022-08-03T13:03:50.190Z,98188.69
2022-08-03T13:06:26.227Z,98188.10
2022-08-03T13:09:09.644Z,98188.27
2022-08-03T13:11:57.486Z,98185.27
2022-08-03T13:14:33.853Z,98184.21
2022-08-03T13:17:06.315Z,98185.81
2022-08-03T13:34:24.110Z,98183.42
2022-08-03T13:37:08.437Z,98184.98
2022-08-03T13:39:58.433Z,98181.27
2022-08-03T13:42:27.045Z,98183.21
2022-08-03T13:44:55.450Z,98182.35
2022-08-03T13:47:23.734Z,98177.79
2022-08-03T13:49:55.849Z,98180.67
2022-08-03T13:52:31.954Z,98180.12
2022-08-03T13:55:00.385Z,98177.69
2022-08-03T13:58:04.141Z,98176.28
2022-08-03T14:00:27.966Z,98172.30
2022-08-03T14:03:05.086Z,98171.96
2022-08-03T14:05:36.422Z,98170.09
2022-08-03T14:08:06.068Z,98171.98
2022-08-03T14:10:36.166Z,98170.80
2022-08-03T14:13:04.837Z,98168.29
2022-08-03T14:15:37.340Z,98170.98
2022-08-03T14:18:07.428Z,98168.20
2022-08-03T14:20:50.114Z,98165.36
2022-08-03T14:23:22.509Z,98161.05
2022-08-03T14:25:52.277Z,98160.23
2022-08-03T14:28:22.677Z,98158.02
2022-08-03T14:30:52.204Z,98157.14
2022-08-03T14:33:30.816Z,98153.50
2022-08-03T14:35:59.050Z,98154.58
2022-08-03T14:38:27.464Z,98152.57
2022-08-03T14:40:55.873Z,98152.69
2022-08-03T14:43:24.430Z,98147.63
2022-08-03T14:45:53.679Z,98144.46
2022-08-03T14:50:29.467Z,98142.21
2022-08-03T14:51:11.440Z,98138.86
2022-08-03T14:53:39.632Z,98137.52
2022-08-03T14:56:10.522Z,98139.47
2022-08-03T14:58:39.336Z,98139.61
2022-08-03T15:02:05.939Z,98136.77
2022-08-03T15:03:56.215Z,98130.69
2022-08-03T15:06:24.541Z,98133.77
2022-08-03T15:09:23.029Z,98129.00
2022-08-03T15:11:41.688Z,98131.00
2022-08-03T15:14:09.848Z,98126.30
2022-08-03T15:16:38.322Z,98132.52
2022-08-03T15:20:05.565Z,98129.73
2022-08-03T15:21:54.903Z,98129.45
2022-08-03T15:24:23.113Z,98125.14
2022-08-03T15:26:52.149Z,98120.94
2022-08-03T15:30:07.153Z,98119.15
2022-08-03T15:32:09.717Z,98120.01
2022-08-03T15:34:37.954Z,98122.16
2022-08-03T15:37:16.559Z,98119.17
2022-08-03T15:39:59.578Z,98119.31
2022-08-03T15:42:30.438Z,98113.15
2022-08-03T15:44:58.818Z,98115.20
2022-08-03T15:47:27.314Z,98117.52
2022-08-03T15:49:55.611Z,98118.10
2022-08-03T15:52:23.920Z,98117.12
2022-08-03T15:54:52.097Z,98114.68
2022-08-03T15:57:20.484Z,98115.19
2022-08-03T15:59:48.807Z,98114.15
2022-08-03T16:02:17.033Z,98110.27
2022-08-03T16:04:45.140Z,98105.73
2022-08-03T16:07:15.036Z,98105.26
2022-08-03T16:09:44.041Z,98102.09
2022-08-03T16:12:15.528Z,98099.89
2022-08-03T16:14:52.381Z,98100.96
2022-08-03T16:17:23.024Z,98096.69
2022-08-03T16:19:54.887Z,98096.04
2022-08-03T16:22:23.771Z,98091.11
2022-08-03T16:24:52.253Z,98090.31
2022-08-03T16:28:00.489Z,98086.84
2022-08-03T16:30:12.111Z,98088.05
2022-08-03T16:32:40.227Z,98086.20
2022-08-03T16:35:09.784Z,98081.77
2022-08-03T16:37:50.679Z,98080.92
2022-08-03T16:40:24.974Z,98073.65
2022-08-03T16:42:53.220Z,98077.45
2022-08-03T16:45:21.754Z,98080.39
2022-08-03T16:48:05.033Z,98080.06
2022-08-03T16:50:35.219Z,98076.85
2022-08-03T16:53:06.129Z,98079.57
2022-08-03T16:55:48.544Z,98086.95
2022-08-03T16:58:34.936Z,98086.60
2022-08-03T17:01:21.667Z,98089.42
2022-08-03T17:04:02.412Z,98087.90
2022-08-03T17:06:35.299Z,98085.09
2022-08-03T17:09:09.047Z,98082.79
2022-08-03T17:11:46.458Z,98086.83
2022-08-03T17:14:17.186Z,98087.71
2022-08-03T17:16:52.829Z,98087.49
2022-08-03T17:19:25.550Z,98088.09
2022-08-03T17:22:01.079Z,98091.65
2022-08-03T17:24:33.314Z,98092.98
2022-08-03T17:27:08.561Z,98097.54
2022-08-03T17:29:45.021Z,98095.02
2022-08-03T17:32:21.320Z,98097.48
2022-08-03T17:34:50.001Z,98099.77
2022-08-03T17:37:50.478Z,98102.70
2022-08-03T17:40:12.599Z,98104.39
2022-08-03T17:42:50.658Z,98109.84
2022-08-03T17:45:20.530Z,98109.39
2022-08-03T17:47:57.896Z,98115.34
2022-08-03T17:50:36.901Z,98117.34
2022-08-03T17:53:15.664Z,98120.19
2022-08-03T17:56:38.694Z,98122.61
2022-08-03T17:59:13.588Z,98126.77
2022-08-03T18:02:15.269Z,98128.73
2022-08-03T18:05:00.638Z,98127.83
2022-08-03T18:07:41.331Z,98129.75
2022-08-03T18:10:15.253Z,98128.69
2022-08-03T18:12:52.683Z,98132.26
2022-08-03T18:15:29.558Z,98135.98
2022-08-03T18:18:03.187Z,98135.47
2022-08-03T18:20:41.974Z,98136.18
2022-08-03T18:23:24.772Z,98137.68
2022-08-03T18:26:02.222Z,98141.15
2022-08-03T18:28:35.859Z,98141.77
2022-08-03T18:31:06.296Z,98147.16
2022-08-03T18:34:32.255Z,98147.06
2022-08-03T18:36:47.809Z,98153.88
2022-08-03T18:39:17.922Z,98153.73
2022-08-03T18:41:48.244Z,98156.82
2022-08-03T18:44:37.655Z,98158.70
2022-08-03T18:47:17.132Z,98164.31
2022-08-03T18:49:57.820Z,98163.95
2022-08-03T18:52:35.219Z,98161.78
2022-08-03T18:55:20.770Z,98162.11
2022-08-03T18:58:18.937Z,98165.32
2022-08-03T19:00:57.056Z,98162.09
2022-08-03T19:03:42.858Z,98167.52
2022-08-03T19:06:20.057Z,98168.74
2022-08-03T19:08:54.886Z,98174.71
2022-08-03T19:12:12.646Z,98176.70
2022-08-03T19:14:28.555Z,98181.80
2022-08-03T19:17:06.945Z,98181.92
2022-08-03T19:19:43.952Z,98179.71
2022-08-03T19:22:16.100Z,98186.27
2022-08-03T19:24:47.092Z,98181.33
2022-08-03T19:27:16.236Z,98178.20
2022-08-03T19:29:59.409Z,98184.68
2022-08-03T19:32:30.773Z,98186.80
2022-08-03T19:35:01.258Z,98185.73
2022-08-03T19:37:38.389Z,98189.77
2022-08-03T19:40:12.245Z,98190.00
2022-08-03T19:42:45.722Z,98184.73
2022-08-03T19:45:21.038Z,98187.48
2022-08-03T19:47:55.714Z,98188.52
2022-08-03T19:50:26.544Z,98189.42
2022-08-03T19:53:02.100Z,98191.64
2022-08-03T19:55:32.421Z,98191.65
2022-08-03T19:58:04.134Z,98191.95
2022-08-03T20:00:37.018Z,98195.77
2022-08-03T20:03:07.293Z,98190.77
2022-08-03T20:05:52.244Z,98192.69
2022-08-03T20:08:22.407Z,98193.68
2022-08-03T20:10:51.457Z,98196.46
2022-08-03T20:13:21.333Z,98197.36
2022-08-03T20:15:56.426Z,98191.89
2022-08-03T20:18:25.539Z,98190.82
2022-08-03T20:20:57.348Z,98190.98
2022-08-03T20:23:27.696Z,98189.99
2022-08-03T20:26:07.420Z,98186.65
2022-08-03T20:28:50.015Z,98182.48
2022-08-03T20:31:23.842Z,98181.83
2022-08-03T20:33:59.847Z,98185.92
2022-08-03T20:36:28.125Z,98182.91
2022-08-03T20:38:58.574Z,98184.46
2022-08-03T20:41:27.957Z,98183.85
2022-08-03T20:44:00.168Z,98185.61
2022-08-03T20:46:30.928Z,98183.98
2022-08-03T20:49:03.909Z,98186.33
2022-08-03T20:51:50.184Z,98189.10
2022-08-03T20:54:29.705Z,98189.48
2022-08-03T20:57:03.711Z,98189.08
2022-08-03T20:59:50.549Z,98191.45
2022-08-03T21:02:29.076Z,98190.87
2022-08-03T21:05:03.256Z,98187.75
2022-08-03T21:08:04.301Z,98189.54
2022-08-03T21:10:30.172Z,98196.25
2022-08-03T21:13:15.188Z,98196.09
2022-08-03T21:16:06.633Z,98199.33
2022-08-03T21:18:42.510Z,98200.73
2022-08-03T21:21:13.470Z,98205.64
2022-08-03T21:23:49.175Z,98206.23
2022-08-03T21:26:19.728Z,98207.02
2022-08-03T21:28:49.153Z,98207.28
2022-08-03T21:31:19.834Z,98206.45
2022-08-03T21:33:56.018Z,98209.27
2022-08-03T21:36:25.456Z,98210.30
2022-08-03T21:38:56.236Z,98207.67
2022-08-03T21:41:27.204Z,98211.32
2022-08-03T21:43:55.837Z,98214.55
2022-08-03T21:46:25.736Z,98211.13
2022-08-03T21:50:07.502Z,98212.98
2022-08-03T21:51:49.998Z,98210.36
2022-08-03T21:54:20.982Z,98212.66
2022-08-03T21:56:54.294Z,98214.98
2022-08-03T21:59:24.177Z,98210.42
2022-08-03T22:01:55.250Z,98213.44
2022-08-03T22:04:50.048Z,98207.55
2022-08-03T22:07:16.509Z,98212.29
2022-08-03T22:09:51.074Z,98208.92
2022-08-03T22:12:24.401Z,98209.75
2022-08-03T22:15:01.409Z,98210.07
2022-08-03T22:17:55.859Z,98216.08
2022-08-03T22:20:23.768Z,98217.95
2022-08-03T22:22:56.728Z,98218.27
2022-08-03T22:25:29.043Z,98218.04
2022-08-03T22:28:01.024Z,98221.56
2022-08-03T22:30:30.882Z,98221.55
2022-08-03T22:33:01.198Z,98219.79
2022-08-03T22:35:47.495Z,98217.36
2022-08-03T22:38:18.152Z,98225.08
2022-08-03T22:40:49.158Z,98223.67
2022-08-03T22:43:17.798Z,98217.28
2022-08-03T22:46:09.832Z,98216.48
2022-08-03T22:48:40.881Z,98219.00
2022-08-03T22:51:10.239Z,98215.56
2022-08-03T22:53:40.273Z,98216.06
2022-08-03T22:56:08.971Z,98220.13
2022-08-03T22:58:37.660Z,98217.58
2022-08-03T23:01:08.339Z,98217.40
2022-08-03T23:03:59.667Z,98218.28
2022-08-03T23:06:34.166Z,98215.15
2022-08-03T23:09:05.944Z,98215.79
2022-08-03T23:11:37.489Z,98214.71
2022-08-03T23:14:11.677Z,98210.79
2022-08-03T23:16:41.521Z,98209.39
2022-08-03T23:19:17.016Z,98210.23
2022-08-03T23:22:02.239Z,98207.98
2022-08-03T23:24:35.500Z,98212.40
2022-08-03T23:27:04.969Z,98208.16
2022-08-03T23:29:37.505Z,98207.91
2022-08-03T23:32:07.585Z,98205.80
2022-08-03T23:34:57.736Z,98202.86
2022-08-03T23:37:26.457Z,98196.19
2022-08-03T23:39:58.143Z,98197.30
2022-08-03T23:42:26.990Z,98192.33
2022-08-03T23:44:56.627Z,98195.24
2022-08-03T23:47:47.436Z,98192.55
2022-08-03T23:50:16.507Z,98193.54
2022-08-03T23:52:55.723Z,98194.14
2022-08-03T23:55:42.725Z,98193.38
2022-08-03T23:58:22.607Z,98193.39
